createdAt,value
2023-03-07T00:00:21.453Z,18.00
2023-03-07T00:02:52.208Z,17.76
2023-03-07T00:05:20.231Z,17.96
2023-03-07T00:07:48.336Z,18.06
2023-03-07T00:10:16.374Z,17.87
2023-03-07T00:12:44.651Z,17.75
2023-03-07T00:15:15.302Z,17.91
2023-03-07T00:17:43.912Z,18.16
2023-03-07T00:20:14.939Z,18.22
2023-03-07T00:22:43.828Z,18.23
2023-03-07T00:25:11.542Z,18.05
2023-03-07T00:27:39.501Z,17.69
2023-03-07T00:30:08.284Z,18.06
2023-03-07T00:32:36.367Z,18.07
2023-03-07T00:35:04.447Z,18.18
2023-03-07T00:37:32.297Z,18.10
2023-03-07T00:40:00.179Z,17.63
2023-03-07T00:42:29.255Z,17.96
2023-03-07T00:44:57.151Z,18.18
2023-03-07T00:47:25.150Z,17.69
2023-03-07T00:49:52.940Z,18.02
2023-03-07T00:52:21.126Z,18.18
2023-03-07T00:54:49.046Z,18.08
2023-03-07T00:57:17.694Z,17.99
2023-03-07T00:59:46.377Z,17.82
2023-03-07T01:02:14.122Z,18.01
2023-03-07T01:04:42.397Z,18.03
2023-03-07T01:07:10.268Z,17.95
2023-03-07T01:09:38.371Z,18.07
2023-03-07T01:12:07.657Z,18.01
2023-03-07T01:14:35.323Z,17.58
2023-03-07T01:17:04.102Z,17.76
2023-03-07T01:19:31.862Z,17.91
2023-03-07T01:21:59.646Z,18.04
2023-03-07T01:24:27.599Z,17.27
2023-03-07T01:26:55.511Z,17.60
2023-03-07T01:29:24.627Z,17.94
2023-03-07T01:31:52.757Z,17.78
2023-03-07T01:34:20.900Z,17.29
2023-03-07T01:36:51.576Z,18.05
2023-03-07T01:39:19.421Z,17.92
2023-03-07T01:41:55.186Z,17.74
2023-03-07T01:44:28.101Z,17.65
2023-03-07T01:47:00.855Z,17.79
2023-03-07T01:49:46.365Z,17.98
2023-03-07T01:52:30.329Z,18.00
2023-03-07T01:55:16.859Z,17.98
2023-03-07T01:57:49.220Z,17.94
2023-03-07T02:00:40.474Z,17.51
2023-03-07T02:03:15.918Z,17.88
2023-03-07T02:05:55.877Z,17.86
2023-03-07T02:08:29.014Z,17.85
2023-03-07T02:10:56.803Z,17.85
2023-03-07T02:13:27.918Z,17.83
2023-03-07T02:15:57.099Z,17.87
2023-03-07T02:18:27.675Z,17.45
2023-03-07T02:21:19.310Z,17.80
2023-03-07T02:23:50.587Z,17.87
2023-03-07T02:26:31.699Z,17.85
2023-03-07T02:29:01.525Z,17.81
2023-03-07T02:31:30.840Z,17.83
2023-03-07T02:33:58.711Z,17.45
2023-03-07T02:36:35.394Z,17.68
2023-03-07T02:39:21.794Z,17.80
2023-03-07T02:41:55.293Z,17.67
2023-03-07T02:44:31.183Z,17.66
2023-03-07T02:46:58.954Z,17.43
2023-03-07T02:49:29.395Z,17.78
2023-03-07T02:52:00.747Z,17.54
2023-03-07T02:54:33.067Z,17.63
2023-03-07T02:57:00.856Z,17.82
2023-03-07T02:59:28.788Z,17.41
2023-03-07T03:01:58.260Z,17.72
2023-03-07T03:04:26.304Z,17.70
2023-03-07T03:06:54.297Z,17.73
2023-03-07T03:09:22.092Z,17.17
2023-03-07T03:11:51.301Z,17.34
2023-03-07T03:14:23.029Z,17.72
2023-03-07T03:16:53.256Z,17.77
2023-03-07T03:19:22.173Z,17.63
2023-03-07T03:21:52.291Z,17.61
2023-03-07T03:24:20.262Z,17.63
2023-03-07T03:26:49.339Z,17.14
2023-03-07T03:29:18.955Z,17.45
2023-03-07T03:31:47.760Z,17.75
2023-03-07T03:34:15.737Z,17.59
2023-03-07T03:36:43.603Z,16.94
2023-03-07T03:39:11.799Z,17.76
2023-03-07T03:41:45.863Z,17.57
2023-03-07T03:44:14.491Z,17.79
2023-03-07T03:46:42.810Z,17.80
2023-03-07T03:49:13.674Z,17.51
2023-03-07T03:51:42.660Z,17.70
2023-03-07T03:54:10.694Z,17.41
2023-03-07T03:56:40.222Z,17.19
2023-03-07T03:59:08.995Z,17.65
2023-03-07T04:01:36.946Z,17.79
2023-03-07T04:04:05.552Z,17.52
2023-03-07T04:06:35.107Z,17.72
2023-03-07T04:09:05.218Z,17.71
2023-03-07T04:11:33.491Z,17.46
2023-03-07T04:14:02.789Z,17.61
2023-03-07T04:16:31.405Z,17.53
2023-03-07T04:19:00.204Z,17.41
2023-03-07T04:21:27.999Z,17.66
2023-03-07T04:23:58.702Z,17.45
2023-03-07T04:26:30.083Z,17.63
2023-03-07T04:28:58.658Z,17.42
2023-03-07T04:31:36.301Z,17.56
2023-03-07T04:34:05.788Z,17.65
2023-03-07T04:36:34.426Z,17.47
2023-03-07T04:39:02.333Z,17.03
2023-03-07T04:41:31.237Z,16.25
2023-03-07T04:44:28.317Z,17.44
2023-03-07T04:46:57.891Z,17.39
2023-03-07T04:49:27.229Z,17.24
2023-03-07T04:51:55.694Z,17.62
2023-03-07T04:54:23.751Z,17.53
2023-03-07T04:56:51.693Z,17.62
2023-03-07T04:59:21.403Z,17.63
2023-03-07T05:01:49.943Z,17.63
2023-03-07T05:04:17.889Z,17.47
2023-03-07T05:06:46.083Z,17.41
2023-03-07T05:09:14.766Z,17.46
2023-03-07T05:11:42.974Z,17.59
2023-03-07T05:14:10.802Z,17.12
2023-03-07T05:16:38.618Z,16.52
2023-03-07T05:19:07.809Z,17.56
2023-03-07T05:21:36.069Z,17.13
2023-03-07T05:24:04.936Z,17.49
2023-03-07T05:26:34.287Z,17.30
2023-03-07T05:29:02.315Z,17.41
2023-03-07T05:31:30.981Z,17.43
2023-03-07T05:33:59.528Z,17.61
2023-03-07T05:36:27.658Z,17.33
2023-03-07T05:38:57.299Z,17.15
2023-03-07T05:41:25.645Z,17.47
2023-03-07T05:43:55.544Z,17.53
2023-03-07T05:46:24.854Z,17.57
2023-03-07T05:48:52.905Z,17.56
2023-03-07T05:51:20.848Z,17.59
2023-03-07T05:53:49.422Z,17.34
2023-03-07T05:56:17.359Z,17.34
2023-03-07T05:58:45.283Z,17.40
2023-03-07T06:01:13.516Z,17.60
2023-03-07T06:03:43.090Z,16.28
2023-03-07T06:06:14.920Z,17.65
2023-03-07T06:08:42.922Z,17.62
2023-03-07T06:11:11.368Z,17.60
2023-03-07T06:13:40.327Z,17.59
2023-03-07T06:16:08.362Z,17.79
2023-03-07T06:18:39.043Z,17.39
2023-03-07T06:21:08.539Z,17.79
2023-03-07T06:23:41.513Z,17.36
2023-03-07T06:26:13.580Z,17.92
2023-03-07T06:28:43.632Z,17.69
2023-03-07T06:31:19.532Z,18.02
2023-03-07T06:33:51.103Z,18.07
2023-03-07T06:36:21.947Z,18.10
2023-03-07T06:38:56.499Z,18.14
2023-03-07T06:41:25.216Z,18.06
2023-03-07T06:43:55.168Z,18.11
2023-03-07T06:46:28.232Z,18.18
2023-03-07T06:48:56.764Z,17.93
2023-03-07T06:51:25.426Z,18.06
2023-03-07T06:53:56.399Z,17.92
2023-03-07T06:56:29.938Z,18.08
2023-03-07T06:58:58.533Z,17.90
2023-03-07T07:01:26.848Z,18.02
2023-03-07T07:03:57.483Z,18.13
2023-03-07T07:06:28.868Z,17.85
2023-03-07T07:08:58.503Z,18.13
2023-03-07T07:11:30.287Z,18.05
2023-03-07T07:13:58.527Z,17.81
2023-03-07T07:16:26.582Z,18.07
2023-03-07T07:18:54.742Z,17.87
2023-03-07T07:21:24.208Z,18.09
2023-03-07T07:23:52.333Z,17.43
2023-03-07T07:26:20.969Z,17.80
2023-03-07T07:28:48.990Z,18.14
2023-03-07T07:31:16.811Z,17.79
2023-03-07T07:33:46.541Z,18.09
2023-03-07T07:36:16.455Z,17.89
2023-03-07T07:38:45.040Z,18.26
2023-03-07T07:41:13.530Z,17.98
2023-03-07T07:43:42.132Z,17.87
2023-03-07T07:46:17.562Z,18.20
2023-03-07T07:48:48.190Z,18.28
2023-03-07T07:51:17.013Z,18.31
2023-03-07T07:53:45.158Z,18.12
2023-03-07T07:56:13.433Z,18.36
2023-03-07T07:58:41.361Z,18.38
2023-03-07T08:01:16.682Z,18.41
2023-03-07T08:03:45.053Z,18.44
2023-03-07T08:06:13.818Z,18.34
2023-03-07T08:08:42.621Z,18.33
2023-03-07T08:11:10.379Z,18.52
2023-03-07T08:13:39.892Z,18.35
2023-03-07T08:16:10.944Z,18.51
2023-03-07T08:18:38.758Z,18.48
2023-03-07T08:21:07.226Z,18.42
2023-03-07T08:23:36.080Z,18.43
2023-03-07T08:26:06.573Z,18.52
2023-03-07T08:28:34.990Z,18.57
2023-03-07T08:31:11.712Z,18.33
2023-03-07T08:33:40.156Z,18.56
2023-03-07T08:36:08.690Z,18.55
2023-03-07T08:38:36.749Z,18.22
2023-03-07T08:41:06.780Z,18.40
2023-03-07T08:43:36.727Z,18.60
2023-03-07T08:46:04.726Z,18.51
2023-03-07T08:48:32.796Z,18.39
2023-03-07T08:51:13.045Z,18.68
2023-03-07T08:53:43.159Z,18.73
2023-03-07T08:56:13.568Z,18.37
2023-03-07T08:58:41.879Z,18.76
2023-03-07T09:01:10.471Z,18.72
2023-03-07T09:03:38.238Z,18.65
2023-03-07T09:06:06.539Z,18.69
2023-03-07T09:08:34.458Z,18.84
2023-03-07T09:11:05.559Z,18.90
2023-03-07T09:13:43.055Z,18.65
2023-03-07T09:16:17.834Z,18.76
2023-03-07T09:18:45.544Z,18.89
2023-03-07T09:21:13.310Z,18.91
2023-03-07T09:23:43.371Z,18.68
2023-03-07T09:26:11.395Z,18.54
2023-03-07T09:28:39.136Z,18.85
2023-03-07T09:31:09.254Z,18.19
2023-03-07T09:33:37.633Z,18.88
2023-03-07T09:36:08.963Z,18.99
2023-03-07T09:38:37.216Z,18.98
2023-03-07T09:41:15.423Z,18.99
2023-03-07T09:43:57.894Z,18.89
2023-03-07T09:47:10.649Z,19.04
2023-03-07T09:49:52.502Z,18.92
2023-03-07T09:52:27.630Z,19.05
2023-03-07T09:55:02.057Z,19.08
2023-03-07T09:57:39.082Z,18.90
2023-03-07T10:00:19.211Z,19.03
2023-03-07T10:03:13.590Z,18.81
2023-03-07T10:05:50.375Z,18.87
2023-03-07T10:08:33.104Z,18.81
2023-03-07T10:11:29.274Z,18.96
2023-03-07T10:14:08.570Z,18.80
2023-03-07T10:16:51.636Z,18.91
2023-03-07T10:19:35.021Z,18.89
2023-03-07T10:22:13.627Z,18.90
2023-03-07T10:25:00.560Z,18.94
2023-03-07T10:27:30.955Z,18.81
2023-03-07T10:30:01.103Z,18.80
2023-03-07T10:32:40.178Z,18.92
2023-03-07T10:35:11.385Z,19.01
2023-03-07T10:37:56.944Z,18.81
2023-03-07T10:40:46.931Z,18.96
2023-03-07T10:43:32.190Z,18.94
2023-03-07T10:46:27.475Z,18.97
2023-03-07T10:48:58.269Z,19.02
2023-03-07T10:51:41.548Z,19.06
2023-03-07T10:54:16.397Z,18.94
2023-03-07T10:57:09.109Z,19.13
2023-03-07T10:59:39.323Z,18.79
2023-03-07T11:02:42.285Z,19.05
2023-03-07T11:05:32.040Z,18.83
2023-03-07T11:08:00.752Z,18.72
2023-03-07T11:10:41.070Z,19.17
2023-03-07T11:13:17.990Z,19.20
2023-03-07T11:15:46.243Z,19.19
2023-03-07T11:18:42.292Z,19.19
2023-03-07T11:21:31.323Z,19.06
2023-03-07T11:24:26.791Z,19.18
2023-03-07T11:26:59.360Z,19.31
2023-03-07T11:29:28.696Z,19.32
2023-03-07T11:32:21.527Z,19.36
2023-03-07T11:34:52.333Z,19.38
2023-03-07T11:37:42.855Z,19.26
2023-03-07T11:40:27.207Z,19.39
2023-03-07T11:43:42.880Z,19.25
2023-03-07T11:46:40.022Z,19.38
2023-03-07T11:49:27.426Z,19.24
2023-03-07T11:52:01.268Z,19.43
2023-03-07T11:55:16.782Z,19.47
2023-03-07T11:58:04.488Z,19.49
2023-03-07T12:00:47.492Z,19.49
2023-03-07T12:03:37.130Z,19.51
2023-03-07T12:06:27.157Z,19.54
2023-03-07T12:09:03.882Z,19.55
2023-03-07T12:11:43.904Z,19.59
2023-03-07T12:14:27.593Z,19.59
2023-03-07T12:16:55.434Z,19.60
2023-03-07T12:19:26.399Z,19.63
2023-03-07T12:22:26.004Z,19.39
2023-03-07T12:25:38.494Z,19.54
2023-03-07T12:28:23.194Z,19.25
2023-03-07T12:30:56.996Z,19.63
2023-03-07T12:33:43.025Z,19.50
2023-03-07T12:36:21.809Z,19.62
2023-03-07T12:38:57.030Z,19.32
2023-03-07T12:41:47.913Z,19.07
2023-03-07T12:44:30.017Z,19.61
2023-03-07T12:47:08.703Z,19.53
2023-03-07T12:49:54.008Z,19.67
2023-03-07T12:52:32.658Z,19.71
2023-03-07T12:55:33.927Z,19.79
2023-03-07T12:58:32.153Z,19.85
2023-03-07T13:01:05.321Z,19.86
2023-03-07T13:03:58.047Z,19.85
2023-03-07T13:06:26.917Z,19.80
2023-03-07T13:08:59.196Z,19.64
2023-03-07T13:11:30.711Z,19.90
2023-03-07T13:14:03.479Z,19.66
2023-03-07T13:16:34.747Z,19.98
2023-03-07T13:19:35.551Z,19.99
2023-03-07T13:22:24.328Z,19.49
2023-03-07T13:24:57.006Z,20.04
2023-03-07T13:27:31.233Z,20.02
2023-03-07T13:30:08.427Z,20.04
2023-03-07T13:32:51.320Z,20.04
2023-03-07T13:35:31.055Z,19.99
2023-03-07T13:38:11.389Z,20.03
2023-03-07T13:40:54.596Z,20.05
2023-03-07T13:43:27.814Z,20.05
2023-03-07T13:46:18.805Z,20.07
2023-03-07T13:48:49.727Z,20.13
2023-03-07T13:51:17.551Z,20.15
2023-03-07T13:53:50.623Z,20.04
2023-03-07T13:56:25.299Z,20.17
2023-03-07T13:59:20.789Z,20.16
2023-03-07T14:02:14.886Z,20.15
2023-03-07T14:04:54.600Z,20.18
2023-03-07T14:07:29.230Z,20.15
2023-03-07T14:10:22.328Z,20.17
2023-03-07T14:13:14.184Z,20.08
2023-03-07T14:16:00.965Z,20.18
2023-03-07T14:18:44.871Z,20.19
2023-03-07T14:21:21.756Z,20.19
2023-03-07T14:24:07.710Z,20.20
2023-03-07T14:26:40.779Z,20.21
2023-03-07T14:29:22.707Z,19.88
2023-03-07T14:31:53.958Z,19.96
2023-03-07T14:34:21.896Z,20.17
2023-03-07T14:36:56.604Z,20.11
2023-03-07T14:39:29.769Z,19.90
2023-03-07T14:42:23.324Z,20.26
2023-03-07T14:45:03.152Z,20.27
2023-03-07T14:48:28.337Z,20.29
2023-03-07T14:51:02.375Z,19.63
2023-03-07T14:53:32.464Z,20.22
2023-03-07T14:56:01.232Z,20.36
2023-03-07T14:58:32.674Z,20.13
2023-03-07T15:01:18.675Z,20.37
2023-03-07T15:03:58.034Z,19.95
2023-03-07T15:06:29.172Z,20.15
2023-03-07T15:08:59.349Z,20.40
2023-03-07T15:11:33.008Z,20.23
2023-03-07T15:14:25.461Z,20.43
2023-03-07T15:16:56.932Z,20.39
2023-03-07T15:19:42.392Z,20.33
2023-03-07T15:22:33.829Z,20.14
2023-03-07T15:25:01.703Z,20.24
2023-03-07T15:27:31.678Z,20.30
2023-03-07T15:30:02.383Z,20.29
2023-03-07T15:32:39.174Z,19.98
2023-03-07T15:35:11.067Z,20.31
2023-03-07T15:38:01.689Z,19.93
2023-03-07T15:40:34.876Z,20.37
2023-03-07T15:43:05.811Z,20.37
2023-03-07T15:45:41.897Z,20.38
2023-03-07T15:48:32.168Z,20.40
2023-03-07T15:51:02.507Z,20.26
2023-03-07T15:53:41.831Z,20.24
2023-03-07T15:56:36.595Z,20.50
2023-03-07T15:59:26.692Z,20.39
2023-03-07T16:01:54.706Z,20.50
2023-03-07T16:04:43.182Z,20.45
2023-03-07T16:07:18.276Z,20.33
2023-03-07T16:09:46.109Z,20.21
2023-03-07T16:12:20.959Z,20.47
2023-03-07T16:14:51.889Z,20.49
2023-03-07T16:17:25.791Z,20.48
2023-03-07T16:19:54.161Z,20.56
2023-03-07T16:22:22.560Z,20.54
2023-03-07T16:24:50.363Z,20.38
2023-03-07T16:27:21.472Z,20.50
2023-03-07T16:29:50.458Z,20.50
2023-03-07T16:32:22.068Z,20.23
2023-03-07T16:34:50.568Z,20.49
2023-03-07T16:37:18.506Z,20.46
2023-03-07T16:39:46.375Z,20.06
2023-03-07T16:42:23.126Z,20.03
2023-03-07T16:44:52.824Z,19.90
2023-03-07T16:47:20.744Z,20.22
2023-03-07T16:49:49.115Z,20.39
2023-03-07T16:52:17.521Z,20.19
2023-03-07T16:54:45.810Z,20.39
2023-03-07T16:57:16.171Z,20.07
2023-03-07T16:59:46.675Z,20.38
2023-03-07T17:02:20.266Z,20.18
2023-03-07T17:04:48.503Z,20.00
2023-03-07T17:07:19.913Z,20.39
2023-03-07T17:09:47.907Z,20.37
2023-03-07T17:12:16.784Z,20.34
2023-03-07T17:14:45.188Z,20.34
2023-03-07T17:17:29.146Z,20.31
2023-03-07T17:19:57.047Z,20.24
2023-03-07T17:22:24.900Z,20.28
2023-03-07T17:24:52.632Z,20.13
2023-03-07T17:27:20.781Z,20.45
2023-03-07T17:29:52.542Z,20.20
2023-03-07T17:32:20.815Z,20.08
2023-03-07T17:34:48.722Z,20.45
2023-03-07T17:37:16.636Z,20.43
2023-03-07T17:39:45.828Z,20.12
2023-03-07T17:42:13.591Z,20.47
2023-03-07T17:44:41.894Z,20.36
2023-03-07T17:47:10.872Z,20.46
2023-03-07T17:49:39.463Z,20.54
2023-03-07T17:52:08.297Z,20.40
2023-03-07T17:54:38.425Z,20.57
2023-03-07T17:57:08.022Z,20.51
2023-03-07T17:59:36.017Z,20.59
2023-03-07T18:02:05.912Z,20.58
2023-03-07T18:04:34.131Z,20.41
2023-03-07T18:07:03.101Z,20.57
2023-03-07T18:09:31.890Z,20.58
2023-03-07T18:12:01.113Z,20.57
2023-03-07T18:14:30.239Z,20.38
2023-03-07T18:16:58.045Z,20.51
2023-03-07T18:19:27.227Z,20.44
2023-03-07T18:21:55.750Z,20.55
2023-03-07T18:24:30.203Z,20.56
2023-03-07T18:27:05.191Z,20.57
2023-03-07T18:29:33.110Z,20.55
2023-03-07T18:32:01.344Z,20.29
2023-03-07T18:34:29.061Z,20.51
2023-03-07T18:36:57.267Z,20.29
2023-03-07T18:39:25.038Z,20.43
2023-03-07T18:41:53.145Z,20.26
2023-03-07T18:44:23.538Z,20.55
2023-03-07T18:46:52.356Z,20.60
2023-03-07T18:49:20.194Z,20.64
2023-03-07T18:51:48.585Z,20.68
2023-03-07T18:54:17.069Z,20.49
2023-03-07T18:56:48.402Z,20.40
2023-03-07T18:59:17.580Z,20.67
2023-03-07T19:01:45.756Z,20.67
2023-03-07T19:04:13.784Z,20.67
2023-03-07T19:06:45.504Z,20.68
2023-03-07T19:09:18.975Z,20.69
2023-03-07T19:11:48.100Z,20.68
2023-03-07T19:14:17.735Z,20.53
2023-03-07T19:16:45.553Z,20.32
2023-03-07T19:19:13.372Z,20.56
2023-03-07T19:21:42.348Z,20.59
2023-03-07T19:24:12.127Z,20.67
2023-03-07T19:26:50.063Z,20.18
2023-03-07T19:29:25.997Z,20.00
2023-03-07T19:31:54.777Z,20.68
2023-03-07T19:34:23.827Z,20.66
2023-03-07T19:36:51.556Z,20.62
2023-03-07T19:39:20.821Z,20.70
2023-03-07T19:41:48.636Z,20.47
2023-03-07T19:44:17.266Z,20.49
2023-03-07T19:46:47.912Z,20.62
2023-03-07T19:49:16.796Z,20.47
2023-03-07T19:51:44.748Z,20.86
2023-03-07T19:54:14.397Z,20.68
2023-03-07T19:56:45.210Z,20.34
2023-03-07T19:59:13.562Z,20.69
2023-03-07T20:01:41.473Z,20.78
2023-03-07T20:04:11.994Z,20.63
2023-03-07T20:06:42.415Z,20.29
2023-03-07T20:09:13.320Z,20.79
2023-03-07T20:11:45.947Z,20.77
2023-03-07T20:14:14.043Z,20.76
2023-03-07T20:16:43.088Z,20.40
2023-03-07T20:19:11.077Z,20.35
2023-03-07T20:21:40.604Z,20.68
2023-03-07T20:24:08.817Z,20.23
2023-03-07T20:26:39.524Z,20.68
2023-03-07T20:29:09.605Z,20.70
2023-03-07T20:31:39.586Z,20.68
2023-03-07T20:34:08.228Z,20.38
2023-03-07T20:36:37.735Z,20.45
2023-03-07T20:39:08.382Z,20.63
2023-03-07T20:41:36.692Z,20.65
2023-03-07T20:44:10.508Z,20.52
2023-03-07T20:46:39.285Z,20.61
2023-03-07T20:49:08.865Z,20.61
2023-03-07T20:51:37.109Z,20.39
2023-03-07T20:54:14.601Z,20.28
2023-03-07T20:56:42.886Z,20.38
2023-03-07T20:59:14.145Z,20.37
2023-03-07T21:01:43.511Z,20.37
2023-03-07T21:04:13.699Z,20.46
2023-03-07T21:06:44.680Z,20.30
2023-03-07T21:09:14.605Z,20.38
2023-03-07T21:11:47.807Z,20.36
2023-03-07T21:14:17.309Z,20.34
2023-03-07T21:16:45.388Z,20.36
2023-03-07T21:19:13.741Z,20.30
2023-03-07T21:21:42.586Z,20.20
2023-03-07T21:24:15.790Z,20.31
2023-03-07T21:26:44.197Z,19.75
2023-03-07T21:29:13.997Z,20.19
2023-03-07T21:31:43.892Z,20.25
2023-03-07T21:34:14.087Z,20.20
2023-03-07T21:36:42.161Z,19.83
2023-03-07T21:39:11.745Z,20.16
2023-03-07T21:41:39.608Z,20.17
2023-03-07T21:44:07.667Z,19.96
2023-03-07T21:46:37.562Z,20.21
2023-03-07T21:49:06.581Z,20.22
2023-03-07T21:51:34.581Z,20.26
2023-03-07T21:54:02.332Z,20.12
2023-03-07T21:56:30.397Z,20.25
2023-03-07T21:58:58.321Z,20.24
2023-03-07T22:01:28.932Z,20.20
2023-03-07T22:03:59.304Z,20.19
2023-03-07T22:06:28.645Z,20.06
2023-03-07T22:08:56.632Z,20.04
2023-03-07T22:11:24.336Z,19.92
2023-03-07T22:13:52.206Z,20.09
2023-03-07T22:16:21.710Z,19.77
2023-03-07T22:18:54.446Z,19.91
2023-03-07T22:21:26.190Z,20.06
2023-03-07T22:24:00.788Z,20.00
2023-03-07T22:26:31.075Z,19.81
2023-03-07T22:28:59.720Z,19.89
2023-03-07T22:31:29.559Z,19.83
2023-03-07T22:33:58.934Z,19.62
2023-03-07T22:36:26.686Z,19.90
2023-03-07T22:38:56.460Z,19.91
2023-03-07T22:41:25.754Z,19.73
2023-03-07T22:43:53.723Z,19.70
2023-03-07T22:46:22.391Z,19.56
2023-03-07T22:48:57.207Z,19.81
2023-03-07T22:51:25.625Z,19.72
2023-03-07T22:53:55.552Z,19.49
2023-03-07T22:56:27.637Z,19.64
2023-03-07T22:58:55.627Z,19.69
2023-03-07T23:01:26.163Z,19.56
2023-03-07T23:03:55.355Z,19.48
2023-03-07T23:06:26.025Z,19.79
2023-03-07T23:08:54.602Z,19.72
2023-03-07T23:11:24.593Z,19.45
2023-03-07T23:13:53.670Z,19.47
2023-03-07T23:16:29.956Z,19.68
2023-03-07T23:18:59.064Z,19.67
2023-03-07T23:21:30.241Z,19.19
2023-03-07T23:23:58.544Z,19.65
2023-03-07T23:26:29.588Z,19.18
2023-03-07T23:28:58.011Z,19.62
2023-03-07T23:31:29.720Z,19.61
2023-03-07T23:33:59.861Z,19.61
2023-03-07T23:36:29.786Z,19.48
2023-03-07T23:38:58.934Z,19.33
2023-03-07T23:41:27.898Z,19.59
2023-03-07T23:43:58.395Z,19.27
2023-03-07T23:46:28.647Z,19.62
2023-03-07T23:48:57.315Z,19.61
2023-03-07T23:51:25.839Z,19.44
2023-03-07T23:53:53.844Z,19.09
2023-03-07T23:56:21.706Z,19.58
2023-03-07T23:58:53.578Z,19.40
